sensor_id;sensor_type;location;lat;lon;timestamp;P1;durP1;ratioP1;P2;durP2;ratioP2
9156;SDS011;4613;48.392;9.998;2023-02-07T00:01:52;2.65;;;1.98;;
9156;SDS011;4613;48.392;9.998;2023-02-07T00:04:41;2.22;;;1.50;;
9156;SDS011;4613;48.392;9.998;2023-02-07T00:07:31;2.28;;;2.08;;
9156;SDS011;4613;48.392;9.998;2023-02-07T00:10:20;2.00;;;1.70;;
9156;SDS011;4613;48.392;9.998;2023-02-07T00:13:09;2.17;;;1.95;;
9156;SDS011;4613;48.392;9.998;2023-02-07T00:15:59;2.17;;;1.98;;
9156;SDS011;4613;48.392;9.998;2023-02-07T00:18:48;3.97;;;2.50;;
9156;SDS011;4613;48.392;9.998;2023-02-07T00:21:39;3.30;;;2.00;;
9156;SDS011;4613;48.392;9.998;2023-02-07T00:24:29;3.15;;;2.78;;
9156;SDS011;4613;48.392;9.998;2023-02-07T00:27:18;3.03;;;2.55;;
9156;SDS011;4613;48.392;9.998;2023-02-07T00:30:08;3.20;;;2.90;;
9156;SDS011;4613;48.392;9.998;2023-02-07T00:32:58;4.00;;;3.20;;
9156;SDS011;4613;48.392;9.998;2023-02-07T00:35:55;3.53;;;2.17;;
9156;SDS011;4613;48.392;9.998;2023-02-07T00:38:46;6.10;;;2.90;;
9156;SDS011;4613;48.392;9.998;2023-02-07T00:41:36;2.40;;;2.13;;
9156;SDS011;4613;48.392;9.998;2023-02-07T00:44:25;3.70;;;2.65;;
9156;SDS011;4613;48.392;9.998;2023-02-07T00:47:15;4.25;;;2.90;;
9156;SDS011;4613;48.392;9.998;2023-02-07T00:50:05;6.28;;;3.03;;
9156;SDS011;4613;48.392;9.998;2023-02-07T00:52:54;4.05;;;2.78;;
9156;SDS011;4613;48.392;9.998;2023-02-07T00:55:44;4.50;;;3.33;;
9156;SDS011;4613;48.392;9.998;2023-02-07T00:58:33;4.18;;;2.40;;
9156;SDS011;4613;48.392;9.998;2023-02-07T01:01:23;4.00;;;2.38;;
9156;SDS011;4613;48.392;9.998;2023-02-07T01:04:12;7.10;;;3.97;;
9156;SDS011;4613;48.392;9.998;2023-02-07T01:07:08;4.82;;;2.72;;
9156;SDS011;4613;48.392;9.998;2023-02-07T01:09:57;4.78;;;3.22;;
9156;SDS011;4613;48.392;9.998;2023-02-07T01:12:47;3.92;;;2.88;;
9156;SDS011;4613;48.392;9.998;2023-02-07T01:15:37;3.25;;;2.63;;
9156;SDS011;4613;48.392;9.998;2023-02-07T01:18:27;3.08;;;2.60;;
9156;SDS011;4613;48.392;9.998;2023-02-07T01:21:19;5.40;;;3.63;;
9156;SDS011;4613;48.392;9.998;2023-02-07T01:24:09;3.92;;;3.05;;
9156;SDS011;4613;48.392;9.998;2023-02-07T01:26:58;4.10;;;3.25;;
9156;SDS011;4613;48.392;9.998;2023-02-07T01:29:49;3.00;;;2.15;;
9156;SDS011;4613;48.392;9.998;2023-02-07T01:32:39;4.03;;;3.33;;
9156;SDS011;4613;48.392;9.998;2023-02-07T01:35:28;3.03;;;2.08;;
9156;SDS011;4613;48.392;9.998;2023-02-07T01:38:17;2.80;;;2.50;;
9156;SDS011;4613;48.392;9.998;2023-02-07T01:41:07;4.32;;;2.63;;
9156;SDS011;4613;48.392;9.998;2023-02-07T01:43:58;5.82;;;2.70;;
9156;SDS011;4613;48.392;9.998;2023-02-07T01:46:56;4.10;;;2.67;;
9156;SDS011;4613;48.392;9.998;2023-02-07T01:49:45;4.30;;;2.97;;
9156;SDS011;4613;48.392;9.998;2023-02-07T01:52:39;3.40;;;2.78;;
9156;SDS011;4613;48.392;9.998;2023-02-07T01:55:30;4.28;;;3.10;;
9156;SDS011;4613;48.392;9.998;2023-02-07T01:58:25;6.90;;;2.95;;
9156;SDS011;4613;48.392;9.998;2023-02-07T02:01:16;4.55;;;2.75;;
9156;SDS011;4613;48.392;9.998;2023-02-07T02:04:10;5.40;;;2.50;;
9156;SDS011;4613;48.392;9.998;2023-02-07T02:07:03;4.55;;;2.35;;
9156;SDS011;4613;48.392;9.998;2023-02-07T02:09:54;7.25;;;3.03;;
9156;SDS011;4613;48.392;9.998;2023-02-07T02:18:37;2.83;;;2.13;;
9156;SDS011;4613;48.392;9.998;2023-02-07T02:38:29;3.55;;;2.38;;
9156;SDS011;4613;48.392;9.998;2023-02-07T02:41:10;4.30;;;3.03;;
9156;SDS011;4613;48.392;9.998;2023-02-07T02:44:33;3.17;;;2.47;;
9156;SDS011;4613;48.392;9.998;2023-02-07T02:47:25;4.72;;;2.78;;
9156;SDS011;4613;48.392;9.998;2023-02-07T02:50:19;2.95;;;2.30;;
9156;SDS011;4613;48.392;9.998;2023-02-07T02:53:11;2.97;;;2.20;;
9156;SDS011;4613;48.392;9.998;2023-02-07T02:56:09;2.00;;;1.85;;
9156;SDS011;4613;48.392;9.998;2023-02-07T02:59:16;4.95;;;3.72;;
9156;SDS011;4613;48.392;9.998;2023-02-07T03:05:37;2.78;;;2.03;;
9156;SDS011;4613;48.392;9.998;2023-02-07T03:19:08;2.85;;;2.55;;
9156;SDS011;4613;48.392;9.998;2023-02-07T03:21:45;2.75;;;2.20;;
9156;SDS011;4613;48.392;9.998;2023-02-07T03:24:36;2.95;;;2.22;;
9156;SDS011;4613;48.392;9.998;2023-02-07T03:27:31;2.78;;;2.10;;
9156;SDS011;4613;48.392;9.998;2023-02-07T03:30:23;3.88;;;2.60;;
9156;SDS011;4613;48.392;9.998;2023-02-07T03:33:16;2.72;;;1.83;;
9156;SDS011;4613;48.392;9.998;2023-02-07T03:36:09;2.35;;;2.13;;
9156;SDS011;4613;48.392;9.998;2023-02-07T03:39:09;2.58;;;2.30;;
9156;SDS011;4613;48.392;9.998;2023-02-07T03:42:00;2.85;;;2.42;;
9156;SDS011;4613;48.392;9.998;2023-02-07T03:44:53;2.83;;;2.38;;
9156;SDS011;4613;48.392;9.998;2023-02-07T03:47:44;4.40;;;2.70;;
9156;SDS011;4613;48.392;9.998;2023-02-07T03:50:34;4.47;;;2.45;;
9156;SDS011;4613;48.392;9.998;2023-02-07T03:53:24;4.10;;;2.75;;
9156;SDS011;4613;48.392;9.998;2023-02-07T03:56:14;3.80;;;2.47;;
9156;SDS011;4613;48.392;9.998;2023-02-07T03:59:03;3.35;;;2.65;;
9156;SDS011;4613;48.392;9.998;2023-02-07T04:01:53;4.22;;;3.00;;
9156;SDS011;4613;48.392;9.998;2023-02-07T04:04:42;3.00;;;2.33;;
9156;SDS011;4613;48.392;9.998;2023-02-07T04:07:32;4.63;;;2.92;;
9156;SDS011;4613;48.392;9.998;2023-02-07T04:10:22;5.53;;;2.38;;
9156;SDS011;4613;48.392;9.998;2023-02-07T04:13:14;2.38;;;2.13;;
9156;SDS011;4613;48.392;9.998;2023-02-07T04:16:03;4.50;;;2.80;;
9156;SDS011;4613;48.392;9.998;2023-02-07T04:18:59;7.10;;;3.67;;
9156;SDS011;4613;48.392;9.998;2023-02-07T04:21:48;2.88;;;2.08;;
9156;SDS011;4613;48.392;9.998;2023-02-07T04:24:38;2.28;;;2.10;;
9156;SDS011;4613;48.392;9.998;2023-02-07T04:27:27;3.47;;;2.60;;
9156;SDS011;4613;48.392;9.998;2023-02-07T04:30:16;3.47;;;1.90;;
9156;SDS011;4613;48.392;9.998;2023-02-07T04:33:05;2.28;;;2.03;;
9156;SDS011;4613;48.392;9.998;2023-02-07T04:35:55;2.15;;;1.92;;
9156;SDS011;4613;48.392;9.998;2023-02-07T04:38:45;2.97;;;2.08;;
9156;SDS011;4613;48.392;9.998;2023-02-07T04:41:34;2.63;;;2.40;;
9156;SDS011;4613;48.392;9.998;2023-02-07T04:44:23;1.85;;;1.70;;
9156;SDS011;4613;48.392;9.998;2023-02-07T04:47:13;2.67;;;2.30;;
9156;SDS011;4613;48.392;9.998;2023-02-07T04:50:03;3.88;;;2.53;;
9156;SDS011;4613;48.392;9.998;2023-02-07T04:52:52;1.67;;;1.58;;
9156;SDS011;4613;48.392;9.998;2023-02-07T04:55:41;2.35;;;1.85;;
9156;SDS011;4613;48.392;9.998;2023-02-07T04:58:31;2.30;;;1.98;;
9156;SDS011;4613;48.392;9.998;2023-02-07T05:01:21;4.05;;;2.05;;
9156;SDS011;4613;48.392;9.998;2023-02-07T05:04:11;2.63;;;2.03;;
9156;SDS011;4613;48.392;9.998;2023-02-07T05:07:03;2.60;;;2.10;;
9156;SDS011;4613;48.392;9.998;2023-02-07T05:09:52;2.75;;;2.22;;
9156;SDS011;4613;48.392;9.998;2023-02-07T05:12:41;5.50;;;3.58;;
9156;SDS011;4613;48.392;9.998;2023-02-07T05:15:31;3.13;;;2.42;;
9156;SDS011;4613;48.392;9.998;2023-02-07T05:18:20;2.88;;;2.10;;
9156;SDS011;4613;48.392;9.998;2023-02-07T05:21:11;2.58;;;2.13;;
9156;SDS011;4613;48.392;9.998;2023-02-07T05:24:00;3.15;;;2.42;;
9156;SDS011;4613;48.392;9.998;2023-02-07T05:26:49;2.92;;;1.98;;
9156;SDS011;4613;48.392;9.998;2023-02-07T05:29:38;3.22;;;2.45;;
9156;SDS011;4613;48.392;9.998;2023-02-07T05:32:28;2.10;;;1.98;;
9156;SDS011;4613;48.392;9.998;2023-02-07T05:35:37;5.03;;;2.70;;
9156;SDS011;4613;48.392;9.998;2023-02-07T05:38:36;3.35;;;2.28;;
9156;SDS011;4613;48.392;9.998;2023-02-07T05:41:25;2.00;;;1.80;;
9156;SDS011;4613;48.392;9.998;2023-02-07T05:44:14;2.53;;;2.08;;
9156;SDS011;4613;48.392;9.998;2023-02-07T05:47:04;2.42;;;2.20;;
9156;SDS011;4613;48.392;9.998;2023-02-07T05:49:54;4.05;;;2.53;;
9156;SDS011;4613;48.392;9.998;2023-02-07T05:52:43;3.13;;;2.38;;
9156;SDS011;4613;48.392;9.998;2023-02-07T05:55:33;2.67;;;2.35;;
9156;SDS011;4613;48.392;9.998;2023-02-07T05:58:22;2.42;;;2.25;;
9156;SDS011;4613;48.392;9.998;2023-02-07T06:01:12;4.65;;;2.70;;
9156;SDS011;4613;48.392;9.998;2023-02-07T06:04:01;2.42;;;1.90;;
9156;SDS011;4613;48.392;9.998;2023-02-07T06:06:50;8.25;;;2.70;;
9156;SDS011;4613;48.392;9.998;2023-02-07T06:09:41;2.80;;;2.22;;
9156;SDS011;4613;48.392;9.998;2023-02-07T06:12:31;2.78;;;2.13;;
9156;SDS011;4613;48.392;9.998;2023-02-07T06:15:22;2.50;;;2.30;;
9156;SDS011;4613;48.392;9.998;2023-02-07T06:18:11;6.30;;;2.83;;
9156;SDS011;4613;48.392;9.998;2023-02-07T06:21:00;2.72;;;2.08;;
9156;SDS011;4613;48.392;9.998;2023-02-07T06:23:49;4.47;;;2.55;;
9156;SDS011;4613;48.392;9.998;2023-02-07T06:26:39;2.55;;;2.20;;
9156;SDS011;4613;48.392;9.998;2023-02-07T06:29:28;3.08;;;2.70;;
9156;SDS011;4613;48.392;9.998;2023-02-07T06:32:17;2.05;;;1.95;;
9156;SDS011;4613;48.392;9.998;2023-02-07T06:35:07;4.15;;;2.92;;
9156;SDS011;4613;48.392;9.998;2023-02-07T06:37:56;2.40;;;2.20;;
9156;SDS011;4613;48.392;9.998;2023-02-07T06:40:45;2.35;;;2.13;;
9156;SDS011;4613;48.392;9.998;2023-02-07T06:43:39;2.20;;;2.00;;
9156;SDS011;4613;48.392;9.998;2023-02-07T06:46:28;3.10;;;2.00;;
9156;SDS011;4613;48.392;9.998;2023-02-07T06:49:18;3.13;;;2.17;;
9156;SDS011;4613;48.392;9.998;2023-02-07T06:52:08;2.28;;;2.08;;
9156;SDS011;4613;48.392;9.998;2023-02-07T06:54:59;2.75;;;2.53;;
9156;SDS011;4613;48.392;9.998;2023-02-07T06:57:49;2.80;;;1.88;;
9156;SDS011;4613;48.392;9.998;2023-02-07T07:00:38;2.67;;;2.08;;
9156;SDS011;4613;48.392;9.998;2023-02-07T07:03:28;2.03;;;1.90;;
9156;SDS011;4613;48.392;9.998;2023-02-07T07:06:17;3.00;;;2.08;;
9156;SDS011;4613;48.392;9.998;2023-02-07T07:09:06;2.22;;;2.13;;
9156;SDS011;4613;48.392;9.998;2023-02-07T07:11:56;2.30;;;1.90;;
9156;SDS011;4613;48.392;9.998;2023-02-07T07:14:45;2.33;;;1.98;;
9156;SDS011;4613;48.392;9.998;2023-02-07T07:17:36;2.22;;;1.92;;
9156;SDS011;4613;48.392;9.998;2023-02-07T07:20:25;2.90;;;2.55;;
9156;SDS011;4613;48.392;9.998;2023-02-07T07:23:14;2.38;;;1.88;;
9156;SDS011;4613;48.392;9.998;2023-02-07T07:26:04;2.65;;;2.15;;
9156;SDS011;4613;48.392;9.998;2023-02-07T07:28:54;3.10;;;2.58;;
9156;SDS011;4613;48.392;9.998;2023-02-07T07:31:48;3.22;;;2.45;;
9156;SDS011;4613;48.392;9.998;2023-02-07T07:34:37;2.75;;;1.73;;
9156;SDS011;4613;48.392;9.998;2023-02-07T07:37:27;5.65;;;3.17;;
9156;SDS011;4613;48.392;9.998;2023-02-07T07:40:20;4.47;;;2.45;;
9156;SDS011;4613;48.392;9.998;2023-02-07T07:43:09;3.72;;;2.25;;
9156;SDS011;4613;48.392;9.998;2023-02-07T07:46:08;4.05;;;2.47;;
9156;SDS011;4613;48.392;9.998;2023-02-07T07:48:57;2.58;;;2.38;;
9156;SDS011;4613;48.392;9.998;2023-02-07T07:51:47;3.80;;;2.45;;
9156;SDS011;4613;48.392;9.998;2023-02-07T07:54:37;4.90;;;2.65;;
9156;SDS011;4613;48.392;9.998;2023-02-07T07:57:26;3.63;;;2.58;;
9156;SDS011;4613;48.392;9.998;2023-02-07T08:00:18;4.93;;;2.53;;
9156;SDS011;4613;48.392;9.998;2023-02-07T08:03:08;5.53;;;2.40;;
9156;SDS011;4613;48.392;9.998;2023-02-07T08:05:59;4.25;;;2.85;;
9156;SDS011;4613;48.392;9.998;2023-02-07T08:08:48;3.15;;;2.85;;
9156;SDS011;4613;48.392;9.998;2023-02-07T08:11:37;4.70;;;3.33;;
9156;SDS011;4613;48.392;9.998;2023-02-07T08:14:26;3.72;;;2.63;;
9156;SDS011;4613;48.392;9.998;2023-02-07T08:17:15;4.72;;;3.30;;
9156;SDS011;4613;48.392;9.998;2023-02-07T08:20:05;4.60;;;3.28;;
9156;SDS011;4613;48.392;9.998;2023-02-07T08:22:54;5.57;;;3.63;;
9156;SDS011;4613;48.392;9.998;2023-02-07T08:25:45;5.72;;;3.42;;
9156;SDS011;4613;48.392;9.998;2023-02-07T08:28:34;7.47;;;3.53;;
9156;SDS011;4613;48.392;9.998;2023-02-07T08:31:23;7.20;;;3.97;;
9156;SDS011;4613;48.392;9.998;2023-02-07T08:34:15;7.20;;;4.03;;
9156;SDS011;4613;48.392;9.998;2023-02-07T08:37:06;6.38;;;4.07;;
9156;SDS011;4613;48.392;9.998;2023-02-07T08:39:56;6.30;;;3.90;;
9156;SDS011;4613;48.392;9.998;2023-02-07T08:42:46;6.20;;;3.70;;
9156;SDS011;4613;48.392;9.998;2023-02-07T08:45:41;7.32;;;4.03;;
9156;SDS011;4613;48.392;9.998;2023-02-07T08:48:34;6.32;;;3.95;;
9156;SDS011;4613;48.392;9.998;2023-02-07T08:51:23;5.15;;;3.75;;
9156;SDS011;4613;48.392;9.998;2023-02-07T08:54:13;5.53;;;3.22;;
9156;SDS011;4613;48.392;9.998;2023-02-07T08:57:02;5.10;;;3.67;;
9156;SDS011;4613;48.392;9.998;2023-02-07T08:59:53;5.03;;;3.50;;
9156;SDS011;4613;48.392;9.998;2023-02-07T09:02:42;5.00;;;3.53;;
9156;SDS011;4613;48.392;9.998;2023-02-07T09:05:32;4.97;;;3.40;;
9156;SDS011;4613;48.392;9.998;2023-02-07T09:08:21;4.95;;;3.63;;
9156;SDS011;4613;48.392;9.998;2023-02-07T09:11:11;6.43;;;3.90;;
9156;SDS011;4613;48.392;9.998;2023-02-07T09:14:00;4.38;;;3.42;;
9156;SDS011;4613;48.392;9.998;2023-02-07T09:16:50;4.82;;;3.53;;
9156;SDS011;4613;48.392;9.998;2023-02-07T09:19:39;6.22;;;3.60;;
9156;SDS011;4613;48.392;9.998;2023-02-07T09:22:28;5.13;;;3.40;;
9156;SDS011;4613;48.392;9.998;2023-02-07T09:25:19;4.57;;;3.70;;
9156;SDS011;4613;48.392;9.998;2023-02-07T09:28:09;5.65;;;4.10;;
9156;SDS011;4613;48.392;9.998;2023-02-07T09:30:58;6.10;;;3.95;;
9156;SDS011;4613;48.392;9.998;2023-02-07T09:33:48;5.75;;;3.50;;
9156;SDS011;4613;48.392;9.998;2023-02-07T09:36:37;4.93;;;3.50;;
9156;SDS011;4613;48.392;9.998;2023-02-07T09:39:27;5.13;;;3.53;;
9156;SDS011;4613;48.392;9.998;2023-02-07T09:42:26;4.88;;;3.30;;
9156;SDS011;4613;48.392;9.998;2023-02-07T09:45:27;5.00;;;3.53;;
9156;SDS011;4613;48.392;9.998;2023-02-07T09:48:23;4.13;;;3.08;;
9156;SDS011;4613;48.392;9.998;2023-02-07T09:51:20;5.22;;;3.67;;
9156;SDS011;4613;48.392;9.998;2023-02-07T09:54:24;4.07;;;3.13;;
9156;SDS011;4613;48.392;9.998;2023-02-07T10:00:26;5.20;;;3.30;;
9156;SDS011;4613;48.392;9.998;2023-02-07T10:03:21;6.07;;;3.70;;
9156;SDS011;4613;48.392;9.998;2023-02-07T10:06:16;4.65;;;3.40;;
9156;SDS011;4613;48.392;9.998;2023-02-07T10:09:17;4.93;;;3.40;;
9156;SDS011;4613;48.392;9.998;2023-02-07T10:15:20;5.38;;;3.60;;
9156;SDS011;4613;48.392;9.998;2023-02-07T10:18:39;4.38;;;3.05;;
9156;SDS011;4613;48.392;9.998;2023-02-07T10:21:49;5.97;;;3.78;;
9156;SDS011;4613;48.392;9.998;2023-02-07T10:28:28;6.93;;;3.93;;
9156;SDS011;4613;48.392;9.998;2023-02-07T10:31:39;8.03;;;3.80;;
9156;SDS011;4613;48.392;9.998;2023-02-07T10:34:34;5.60;;;4.00;;
9156;SDS011;4613;48.392;9.998;2023-02-07T10:37:29;7.17;;;3.80;;
9156;SDS011;4613;48.392;9.998;2023-02-07T10:40:28;5.17;;;3.67;;
9156;SDS011;4613;48.392;9.998;2023-02-07T10:43:35;4.67;;;3.47;;
9156;SDS011;4613;48.392;9.998;2023-02-07T10:46:26;4.67;;;3.50;;
9156;SDS011;4613;48.392;9.998;2023-02-07T10:49:18;5.43;;;3.60;;
9156;SDS011;4613;48.392;9.998;2023-02-07T10:55:32;5.90;;;3.83;;
9156;SDS011;4613;48.392;9.998;2023-02-07T10:58:25;5.50;;;3.45;;
9156;SDS011;4613;48.392;9.998;2023-02-07T11:01:27;8.05;;;3.67;;
9156;SDS011;4613;48.392;9.998;2023-02-07T11:04:22;6.43;;;4.13;;
9156;SDS011;4613;48.392;9.998;2023-02-07T11:07:13;5.47;;;3.57;;
9156;SDS011;4613;48.392;9.998;2023-02-07T11:13:04;4.80;;;3.50;;
9156;SDS011;4613;48.392;9.998;2023-02-07T11:16:05;5.88;;;3.75;;
9156;SDS011;4613;48.392;9.998;2023-02-07T11:18:57;6.30;;;3.97;;
9156;SDS011;4613;48.392;9.998;2023-02-07T11:21:49;6.60;;;3.97;;
9156;SDS011;4613;48.392;9.998;2023-02-07T11:24:40;5.90;;;3.63;;
9156;SDS011;4613;48.392;9.998;2023-02-07T11:27:35;5.60;;;3.63;;
9156;SDS011;4613;48.392;9.998;2023-02-07T11:30:27;4.95;;;3.75;;
9156;SDS011;4613;48.392;9.998;2023-02-07T11:33:21;6.78;;;3.67;;
9156;SDS011;4613;48.392;9.998;2023-02-07T11:39:13;4.60;;;3.33;;
9156;SDS011;4613;48.392;9.998;2023-02-07T11:42:08;5.68;;;3.58;;
9156;SDS011;4613;48.392;9.998;2023-02-07T11:45:04;5.72;;;4.28;;
9156;SDS011;4613;48.392;9.998;2023-02-07T11:47:54;5.32;;;3.80;;
9156;SDS011;4613;48.392;9.998;2023-02-07T11:50:47;5.55;;;3.85;;
9156;SDS011;4613;48.392;9.998;2023-02-07T11:53:48;8.20;;;4.40;;
9156;SDS011;4613;48.392;9.998;2023-02-07T11:56:42;6.43;;;3.75;;
9156;SDS011;4613;48.392;9.998;2023-02-07T11:59:50;5.53;;;3.97;;
9156;SDS011;4613;48.392;9.998;2023-02-07T12:03:03;6.05;;;3.92;;
9156;SDS011;4613;48.392;9.998;2023-02-07T12:05:57;6.82;;;4.05;;
9156;SDS011;4613;48.392;9.998;2023-02-07T12:08:50;6.20;;;3.55;;
9156;SDS011;4613;48.392;9.998;2023-02-07T12:11:39;6.45;;;4.47;;
9156;SDS011;4613;48.392;9.998;2023-02-07T12:14:40;4.97;;;3.80;;
9156;SDS011;4613;48.392;9.998;2023-02-07T12:17:38;6.85;;;4.38;;
9156;SDS011;4613;48.392;9.998;2023-02-07T12:27:02;5.82;;;4.07;;
9156;SDS011;4613;48.392;9.998;2023-02-07T12:30:03;3.92;;;3.10;;
9156;SDS011;4613;48.392;9.998;2023-02-07T12:45:14;6.78;;;4.47;;
9156;SDS011;4613;48.392;9.998;2023-02-07T12:54:49;7.47;;;4.70;;
9156;SDS011;4613;48.392;9.998;2023-02-07T12:57:50;5.65;;;3.97;;
9156;SDS011;4613;48.392;9.998;2023-02-07T13:13:49;5.35;;;3.45;;
9156;SDS011;4613;48.392;9.998;2023-02-07T13:17:09;5.70;;;4.15;;
9156;SDS011;4613;48.392;9.998;2023-02-07T13:23:17;5.50;;;4.10;;
9156;SDS011;4613;48.392;9.998;2023-02-07T13:26:13;6.78;;;4.38;;
9156;SDS011;4613;48.392;9.998;2023-02-07T13:29:11;4.53;;;3.55;;
9156;SDS011;4613;48.392;9.998;2023-02-07T13:32:04;9.25;;;3.95;;
9156;SDS011;4613;48.392;9.998;2023-02-07T13:38:03;7.03;;;4.20;;
9156;SDS011;4613;48.392;9.998;2023-02-07T13:41:52;6.75;;;4.05;;
9156;SDS011;4613;48.392;9.998;2023-02-07T13:48:17;7.40;;;4.05;;
9156;SDS011;4613;48.392;9.998;2023-02-07T13:57:19;6.25;;;3.80;;
9156;SDS011;4613;48.392;9.998;2023-02-07T14:03:35;6.03;;;3.75;;
9156;SDS011;4613;48.392;9.998;2023-02-07T14:06:25;11.73;;;4.13;;
9156;SDS011;4613;48.392;9.998;2023-02-07T14:09:28;8.85;;;4.03;;
9156;SDS011;4613;48.392;9.998;2023-02-07T14:12:27;4.75;;;3.80;;
9156;SDS011;4613;48.392;9.998;2023-02-07T14:21:30;6.22;;;4.00;;
9156;SDS011;4613;48.392;9.998;2023-02-07T14:24:28;6.63;;;4.53;;
9156;SDS011;4613;48.392;9.998;2023-02-07T14:30:29;4.15;;;3.15;;
9156;SDS011;4613;48.392;9.998;2023-02-07T14:33:34;4.28;;;3.40;;
9156;SDS011;4613;48.392;9.998;2023-02-07T14:36:27;5.07;;;3.72;;
9156;SDS011;4613;48.392;9.998;2023-02-07T14:42:16;4.70;;;3.10;;
9156;SDS011;4613;48.392;9.998;2023-02-07T14:45:16;5.22;;;3.45;;
9156;SDS011;4613;48.392;9.998;2023-02-07T14:48:28;4.53;;;3.38;;
9156;SDS011;4613;48.392;9.998;2023-02-07T15:00:27;4.25;;;3.00;;
9156;SDS011;4613;48.392;9.998;2023-02-07T15:03:19;5.85;;;3.60;;
9156;SDS011;4613;48.392;9.998;2023-02-07T15:06:15;5.43;;;3.90;;
9156;SDS011;4613;48.392;9.998;2023-02-07T15:09:23;5.40;;;3.40;;
9156;SDS011;4613;48.392;9.998;2023-02-07T15:12:18;5.07;;;3.20;;
9156;SDS011;4613;48.392;9.998;2023-02-07T15:15:26;5.88;;;3.67;;
9156;SDS011;4613;48.392;9.998;2023-02-07T15:18:18;6.35;;;3.40;;
9156;SDS011;4613;48.392;9.998;2023-02-07T15:21:16;6.32;;;3.25;;
9156;SDS011;4613;48.392;9.998;2023-02-07T15:24:13;2.92;;;2.47;;
9156;SDS011;4613;48.392;9.998;2023-02-07T15:27:16;4.13;;;3.30;;
9156;SDS011;4613;48.392;9.998;2023-02-07T15:30:19;3.75;;;3.05;;
9156;SDS011;4613;48.392;9.998;2023-02-07T15:33:10;3.75;;;2.88;;
9156;SDS011;4613;48.392;9.998;2023-02-07T15:36:06;3.75;;;2.85;;
9156;SDS011;4613;48.392;9.998;2023-02-07T15:39:16;3.10;;;2.42;;
9156;SDS011;4613;48.392;9.998;2023-02-07T15:42:20;4.43;;;2.88;;
9156;SDS011;4613;48.392;9.998;2023-02-07T15:45:26;4.90;;;3.42;;
9156;SDS011;4613;48.392;9.998;2023-02-07T15:48:20;3.25;;;2.75;;
9156;SDS011;4613;48.392;9.998;2023-02-07T15:51:19;5.53;;;3.58;;
9156;SDS011;4613;48.392;9.998;2023-02-07T15:54:12;3.13;;;2.88;;
9156;SDS011;4613;48.392;9.998;2023-02-07T16:00:20;6.53;;;2.72;;
9156;SDS011;4613;48.392;9.998;2023-02-07T16:03:30;4.70;;;2.45;;
9156;SDS011;4613;48.392;9.998;2023-02-07T16:06:30;6.30;;;3.38;;
9156;SDS011;4613;48.392;9.998;2023-02-07T16:09:37;4.15;;;3.25;;
9156;SDS011;4613;48.392;9.998;2023-02-07T16:12:44;6.28;;;3.65;;
9156;SDS011;4613;48.392;9.998;2023-02-07T16:18:47;4.22;;;2.42;;
9156;SDS011;4613;48.392;9.998;2023-02-07T16:22:12;2.97;;;2.67;;
9156;SDS011;4613;48.392;9.998;2023-02-07T16:25:20;3.83;;;2.75;;
9156;SDS011;4613;48.392;9.998;2023-02-07T16:28:11;5.47;;;3.38;;
9156;SDS011;4613;48.392;9.998;2023-02-07T16:31:03;4.28;;;2.92;;
9156;SDS011;4613;48.392;9.998;2023-02-07T16:33:55;4.28;;;2.67;;
9156;SDS011;4613;48.392;9.998;2023-02-07T16:36:46;3.28;;;2.83;;
9156;SDS011;4613;48.392;9.998;2023-02-07T16:39:41;4.82;;;3.10;;
9156;SDS011;4613;48.392;9.998;2023-02-07T16:42:30;4.70;;;3.15;;
9156;SDS011;4613;48.392;9.998;2023-02-07T16:48:12;6.63;;;3.92;;
9156;SDS011;4613;48.392;9.998;2023-02-07T16:51:03;3.78;;;2.55;;
9156;SDS011;4613;48.392;9.998;2023-02-07T16:53:53;2.88;;;2.50;;
9156;SDS011;4613;48.392;9.998;2023-02-07T16:56:43;5.13;;;3.30;;
9156;SDS011;4613;48.392;9.998;2023-02-07T16:59:34;3.88;;;2.30;;
9156;SDS011;4613;48.392;9.998;2023-02-07T17:02:23;4.90;;;3.13;;
9156;SDS011;4613;48.392;9.998;2023-02-07T17:05:13;4.30;;;2.90;;
9156;SDS011;4613;48.392;9.998;2023-02-07T17:08:03;3.60;;;3.00;;
9156;SDS011;4613;48.392;9.998;2023-02-07T17:10:54;6.18;;;3.28;;
9156;SDS011;4613;48.392;9.998;2023-02-07T17:13:47;5.45;;;3.08;;
9156;SDS011;4613;48.392;9.998;2023-02-07T17:16:37;3.63;;;2.72;;
9156;SDS011;4613;48.392;9.998;2023-02-07T17:19:27;4.47;;;3.47;;
9156;SDS011;4613;48.392;9.998;2023-02-07T17:22:16;4.80;;;3.30;;
9156;SDS011;4613;48.392;9.998;2023-02-07T17:25:08;4.70;;;2.88;;
9156;SDS011;4613;48.392;9.998;2023-02-07T17:27:58;4.20;;;3.13;;
9156;SDS011;4613;48.392;9.998;2023-02-07T17:30:48;5.57;;;3.40;;
9156;SDS011;4613;48.392;9.998;2023-02-07T17:33:38;3.60;;;3.10;;
9156;SDS011;4613;48.392;9.998;2023-02-07T17:36:27;4.00;;;3.03;;
9156;SDS011;4613;48.392;9.998;2023-02-07T17:39:17;6.05;;;3.42;;
9156;SDS011;4613;48.392;9.998;2023-02-07T17:42:07;5.78;;;2.72;;
9156;SDS011;4613;48.392;9.998;2023-02-07T17:44:57;7.85;;;3.53;;
9156;SDS011;4613;48.392;9.998;2023-02-07T17:47:47;4.20;;;2.85;;
9156;SDS011;4613;48.392;9.998;2023-02-07T17:50:37;4.45;;;2.97;;
9156;SDS011;4613;48.392;9.998;2023-02-07T17:53:28;4.22;;;2.90;;
9156;SDS011;4613;48.392;9.998;2023-02-07T17:59:22;5.57;;;3.08;;
9156;SDS011;4613;48.392;9.998;2023-02-07T18:02:12;3.13;;;1.95;;
9156;SDS011;4613;48.392;9.998;2023-02-07T18:05:02;3.35;;;2.50;;
9156;SDS011;4613;48.392;9.998;2023-02-07T18:07:52;2.47;;;1.88;;
9156;SDS011;4613;48.392;9.998;2023-02-07T18:10:44;3.45;;;2.30;;
9156;SDS011;4613;48.392;9.998;2023-02-07T18:13:33;2.65;;;2.45;;
9156;SDS011;4613;48.392;9.998;2023-02-07T18:16:24;4.25;;;3.13;;
9156;SDS011;4613;48.392;9.998;2023-02-07T18:19:16;6.07;;;3.50;;
9156;SDS011;4613;48.392;9.998;2023-02-07T18:22:06;6.57;;;3.75;;
9156;SDS011;4613;48.392;9.998;2023-02-07T18:24:56;5.78;;;3.33;;
9156;SDS011;4613;48.392;9.998;2023-02-07T18:27:45;6.47;;;3.90;;
9156;SDS011;4613;48.392;9.998;2023-02-07T18:30:37;3.75;;;3.05;;
9156;SDS011;4613;48.392;9.998;2023-02-07T18:33:27;7.40;;;4.00;;
9156;SDS011;4613;48.392;9.998;2023-02-07T18:36:17;5.85;;;3.30;;
9156;SDS011;4613;48.392;9.998;2023-02-07T18:39:08;6.50;;;3.83;;
9156;SDS011;4613;48.392;9.998;2023-02-07T18:42:03;5.88;;;3.47;;
9156;SDS011;4613;48.392;9.998;2023-02-07T18:44:53;4.75;;;3.35;;
9156;SDS011;4613;48.392;9.998;2023-02-07T18:47:43;4.25;;;3.30;;
9156;SDS011;4613;48.392;9.998;2023-02-07T18:50:35;4.15;;;2.90;;
9156;SDS011;4613;48.392;9.998;2023-02-07T18:53:29;5.38;;;3.13;;
9156;SDS011;4613;48.392;9.998;2023-02-07T18:56:20;3.63;;;3.10;;
9156;SDS011;4613;48.392;9.998;2023-02-07T18:59:11;3.80;;;2.95;;
9156;SDS011;4613;48.392;9.998;2023-02-07T19:02:03;4.60;;;2.97;;
9156;SDS011;4613;48.392;9.998;2023-02-07T19:04:54;4.00;;;2.60;;
9156;SDS011;4613;48.392;9.998;2023-02-07T19:07:43;3.78;;;2.45;;
9156;SDS011;4613;48.392;9.998;2023-02-07T19:10:33;4.30;;;2.67;;
9156;SDS011;4613;48.392;9.998;2023-02-07T19:13:22;3.80;;;2.83;;
9156;SDS011;4613;48.392;9.998;2023-02-07T19:16:14;4.20;;;2.85;;
9156;SDS011;4613;48.392;9.998;2023-02-07T19:19:05;5.88;;;3.05;;
9156;SDS011;4613;48.392;9.998;2023-02-07T19:21:55;4.07;;;2.80;;
9156;SDS011;4613;48.392;9.998;2023-02-07T19:24:44;9.20;;;2.72;;
9156;SDS011;4613;48.392;9.998;2023-02-07T19:27:34;4.05;;;2.58;;
9156;SDS011;4613;48.392;9.998;2023-02-07T19:30:23;3.50;;;2.58;;
9156;SDS011;4613;48.392;9.998;2023-02-07T19:33:13;2.97;;;2.65;;
9156;SDS011;4613;48.392;9.998;2023-02-07T19:36:06;3.80;;;2.38;;
9156;SDS011;4613;48.392;9.998;2023-02-07T19:38:58;5.60;;;2.85;;
9156;SDS011;4613;48.392;9.998;2023-02-07T19:41:48;7.22;;;3.10;;
9156;SDS011;4613;48.392;9.998;2023-02-07T19:44:37;3.25;;;2.20;;
9156;SDS011;4613;48.392;9.998;2023-02-07T19:47:26;2.95;;;2.55;;
9156;SDS011;4613;48.392;9.998;2023-02-07T19:50:16;4.85;;;3.10;;
9156;SDS011;4613;48.392;9.998;2023-02-07T19:53:06;5.07;;;2.35;;
9156;SDS011;4613;48.392;9.998;2023-02-07T19:56:03;2.55;;;2.03;;
9156;SDS011;4613;48.392;9.998;2023-02-07T19:59:00;3.60;;;2.17;;
9156;SDS011;4613;48.392;9.998;2023-02-07T20:01:51;2.90;;;1.90;;
9156;SDS011;4613;48.392;9.998;2023-02-07T20:04:42;3.53;;;2.67;;
9156;SDS011;4613;48.392;9.998;2023-02-07T20:07:31;2.13;;;1.90;;
9156;SDS011;4613;48.392;9.998;2023-02-07T20:10:21;2.22;;;2.03;;
9156;SDS011;4613;48.392;9.998;2023-02-07T20:13:13;4.68;;;2.75;;
9156;SDS011;4613;48.392;9.998;2023-02-07T20:16:07;3.08;;;2.08;;
9156;SDS011;4613;48.392;9.998;2023-02-07T20:19:00;9.25;;;3.42;;
9156;SDS011;4613;48.392;9.998;2023-02-07T20:21:50;7.97;;;3.22;;